Pagrindinis puslapis
METAR-TAF:

METAR-TAF

Oro uostai :

Naval Station Mayport (Adm. David L. McDonald Field)

Mayport, Florida, Jungtinės Amerikos Valstijos

platuma: 30-23-45N, ilguma: 081-25-21W, Aukštis: 5 m

Dabartinis oras

Ataskaita buvo paskelbta 48 minutes, ne 17:52 UTC
Vėjas 4 kt nuo kintamojo kryptimis
Temperatūra 22°C
Drėgmė 46%
Slėgis 1014 hPa
Matomumas: 16.1 km
Su prošvaistėmis ne aukštis 25000 ft

METAR: KNRB 171752Z VRB04KT 10SM BKN250 22/10 A2993 RMK AO2 SLP134 T02220100 10222 20156 58017

Laikas: 14:40 (18:40 UTC)

Prognozė

Prognozė galioja nuo 17 metu 15 UTC su 18 metu 15 UTC
Vėjas 10 kt iš Šiaurės/Šiaurės Vakarų
Matomumas 10 km arba daugiau
Su prošvaistėmis ne aukštis 25000 ft
Nuo 18 metu 0000 UTC
Vėjas 5 kt iš Šiaurės/Šiaurės Rytų
Matomumas: 1515 m
Mažai debesys ne aukštis 15000 ft
Su prošvaistėmis ne aukštis 25000 ft

TAF: KNRB 1715/1815 33010KT 9999 BKN250 QHN2988INS FM180000 03005KT 9999 FEW150 BKN250 QNH2994INS T25/1719Z T14/1810Z COR 1515 FN20022

Orai ataskaitas ir orų prognozės (METAR, TAF).

turimą stotys yra geltonos ir raudonos taškus žemėlapyje.

Perkelti pele per norėdami pamatyti stoties vardą.

Tada spustelėkite, norėdami matyti oro stebėjimo ir prognozės.

Norėdami pakeisti žemėlapį: spustelėkite ant žalios mygtukų su juodo kryžiaus žemyn,; žalią mygtuką su brūkšneliu, jei norite nutolinti; arba žalių rodyklių gretimoms žemėlapius.


METAR-TAF: